METAR AND TAF INFORMATION
METAR FOR LEGR
ADDS - METARS form results

(1215 UTC 08 August 2020)
Data provider http://aviationweather.gov/metar/data/
 
METAR text: LEGR 081200Z VRB02KT CAVOK 35/08 Q1020
Conditions at: LEGR (GRANADA AIRPORT , ES) observed 1200 UTC 08 August 2020
Temperature: 35.0°C (95°F)
Dewpoint: 8.0°C (46°F) [RH = 19%]
Pressure (altimeter): 30.12 inches Hg (1020.0 mb)
Winds: variable direction winds at 2 MPH (2 knots; 1.0 m/s)
Visibility: 6 or more miles (10+ km)
Ceiling: ceiling and visibility are OK
Clouds: unknown
Weather: no significant weather observed at this time

METAR text: LEGR 081130Z 01003KT 330V080 CAVOK 35/12 Q1020
Conditions at: LEGR (GRANADA AIRPORT , ES) observed 1130 UTC 08 August 2020
Temperature: 35.0°C (95°F)
Dewpoint: 12.0°C (54°F) [RH = 25%]
Pressure (altimeter): 30.12 inches Hg (1020.0 mb)
Winds: from the N (10 degrees) at 3 MPH (3 knots; 1.5 m/s)
Visibility: 6 or more miles (10+ km)
Ceiling: ceiling and visibility are OK
Clouds: unknown
Weather: no significant weather observed at this time

Forecast for: LEGR (GRANADA AIRPORT , ES)
Text: TAF LEGR 080800Z 0809/0909 VRB03KT 9999 FEW060 TX40/0815Z TN21/0905Z
Forecast period: 0900 to 1100 UTC 08 August 2020
Forecast type: FROM: standard forecast or significant change
Winds: variable direction winds at 3 MPH (3 knots; 1.5 m/s)
Visibility: 6 or more miles (10+ km)
Ceiling: at least 12,000 feet AGL
Clouds: few clouds at 6000 feet AGL
Weather: no significant weather forecast for this period
Text: BECMG 0811/0813 15010KT
Forecast period: 1100 to 1900 UTC 08 August 2020
Forecast type: BECOMING: Conditions expected to become as follows by 1300 UTC 08 August 2020
Winds: from the SSE (150 degrees) at 12 MPH (10 knots; 5.1 m/s)
Visibility: 6 or more miles (10+ km)
Ceiling: at least 12,000 feet AGL
Clouds: few clouds at 6000 feet AGL
Weather: no significant weather forecast for this period
Text: BECMG 0819/0821 VRB03KT
Forecast period: 1900 UTC 08 August 2020 to 0900 UTC 09 August 2020
Forecast type: BECOMING: Conditions expected to become as follows by 2100 UTC 08 August 2020
Winds: variable direction winds at 3 MPH (3 knots; 1.5 m/s)
Visibility: 6 or more miles (10+ km)
Ceiling: at least 12,000 feet AGL
Clouds: few clouds at 6000 feet AGL
Weather: no significant weather forecast for this period

 AIRPORT MAP

 RUNWAY INFORMATION
Runway 09 Runway length 9514 ft Runway width 148 ft
Runway elevation 1842 ft Runway displaced threshold 0 ft Runway heading 90
Runway 27 Runway length 9514 ft Runway width 148 ft
Runway elevation 1860 ft Runway displaced threshold 0 ft Runway heading 270

 AIRPORT FREQUENCIES
Type GND Name GND Frequency 121.7 MHZ
Type TWR Name TWR Frequency 118.85 MHZ

 AIRPORT NEAR NAVIGATION AIDS
Type VOR-DME Name Granada Frequency 113400 KHZ



Powered by Virtual Airlines Manager [v2.6.2]